sensor_id;sensor_type;location;lat;lon;timestamp;P1;durP1;ratioP1;P2;durP2;ratioP2
52948;SDS011;38812;50.942;3.644;2022-12-29T00:01:47;2.47;;;1.02;;
52948;SDS011;38812;50.942;3.644;2022-12-29T00:04:13;0.98;;;0.60;;
52948;SDS011;38812;50.942;3.644;2022-12-29T00:06:40;0.65;;;0.50;;
52948;SDS011;38812;50.942;3.644;2022-12-29T00:09:07;3.75;;;0.82;;
52948;SDS011;38812;50.942;3.644;2022-12-29T00:11:33;3.85;;;0.82;;
52948;SDS011;38812;50.942;3.644;2022-12-29T00:13:58;2.00;;;0.57;;
52948;SDS011;38812;50.942;3.644;2022-12-29T00:16:43;1.35;;;0.70;;
52948;SDS011;38812;50.942;3.644;2022-12-29T00:19:09;3.92;;;0.70;;
52948;SDS011;38812;50.942;3.644;2022-12-29T00:21:55;8.27;;;1.10;;
52948;SDS011;38812;50.942;3.644;2022-12-29T00:24:40;3.20;;;0.98;;
52948;SDS011;38812;50.942;3.644;2022-12-29T00:27:23;3.42;;;0.55;;
52948;SDS011;38812;50.942;3.644;2022-12-29T00:30:13;2.13;;;0.45;;
52948;SDS011;38812;50.942;3.644;2022-12-29T00:33:15;2.78;;;0.57;;
52948;SDS011;38812;50.942;3.644;2022-12-29T00:38:29;2.75;;;1.05;;
52948;SDS011;38812;50.942;3.644;2022-12-29T00:41:15;2.42;;;0.70;;
52948;SDS011;38812;50.942;3.644;2022-12-29T00:43:59;1.77;;;0.65;;
52948;SDS011;38812;50.942;3.644;2022-12-29T00:46:31;2.55;;;0.63;;
52948;SDS011;38812;50.942;3.644;2022-12-29T00:48:57;2.30;;;0.60;;
52948;SDS011;38812;50.942;3.644;2022-12-29T00:51:41;1.92;;;0.57;;
52948;SDS011;38812;50.942;3.644;2022-12-29T00:54:07;4.30;;;0.98;;
52948;SDS011;38812;50.942;3.644;2022-12-29T00:56:33;4.63;;;1.13;;
52948;SDS011;38812;50.942;3.644;2022-12-29T00:59:02;4.72;;;0.93;;
52948;SDS011;38812;50.942;3.644;2022-12-29T01:01:29;7.80;;;1.38;;
52948;SDS011;38812;50.942;3.644;2022-12-29T01:03:55;4.80;;;0.80;;
52948;SDS011;38812;50.942;3.644;2022-12-29T01:06:20;6.10;;;1.00;;
52948;SDS011;38812;50.942;3.644;2022-12-29T01:08:46;6.28;;;0.88;;
52948;SDS011;38812;50.942;3.644;2022-12-29T01:11:12;4.70;;;0.70;;
52948;SDS011;38812;50.942;3.644;2022-12-29T01:13:38;5.90;;;0.85;;
52948;SDS011;38812;50.942;3.644;2022-12-29T01:16:06;4.85;;;0.98;;
52948;SDS011;38812;50.942;3.644;2022-12-29T01:18:32;4.45;;;0.80;;
52948;SDS011;38812;50.942;3.644;2022-12-29T01:21:01;4.10;;;1.25;;
52948;SDS011;38812;50.942;3.644;2022-12-29T01:23:31;2.65;;;0.65;;
52948;SDS011;38812;50.942;3.644;2022-12-29T01:25:57;5.78;;;1.13;;
52948;SDS011;38812;50.942;3.644;2022-12-29T01:28:22;4.70;;;1.00;;
52948;SDS011;38812;50.942;3.644;2022-12-29T01:30:48;11.90;;;0.95;;
52948;SDS011;38812;50.942;3.644;2022-12-29T01:33:14;3.58;;;0.90;;
52948;SDS011;38812;50.942;3.644;2022-12-29T01:35:39;3.15;;;0.95;;
52948;SDS011;38812;50.942;3.644;2022-12-29T01:38:05;5.38;;;0.73;;
52948;SDS011;38812;50.942;3.644;2022-12-29T01:40:30;2.60;;;0.60;;
52948;SDS011;38812;50.942;3.644;2022-12-29T01:42:56;4.53;;;0.88;;
52948;SDS011;38812;50.942;3.644;2022-12-29T01:45:21;4.38;;;1.30;;
52948;SDS011;38812;50.942;3.644;2022-12-29T01:47:51;2.08;;;0.57;;
52948;SDS011;38812;50.942;3.644;2022-12-29T01:50:23;4.05;;;0.60;;
52948;SDS011;38812;50.942;3.644;2022-12-29T01:52:59;4.00;;;0.70;;
52948;SDS011;38812;50.942;3.644;2022-12-29T01:55:27;4.10;;;0.77;;
52948;SDS011;38812;50.942;3.644;2022-12-29T01:57:56;5.35;;;0.70;;
52948;SDS011;38812;50.942;3.644;2022-12-29T02:00:26;5.50;;;1.00;;
52948;SDS011;38812;50.942;3.644;2022-12-29T02:02:52;4.07;;;0.80;;
52948;SDS011;38812;50.942;3.644;2022-12-29T02:08:20;5.88;;;0.75;;
52948;SDS011;38812;50.942;3.644;2022-12-29T02:10:49;5.00;;;0.80;;
52948;SDS011;38812;50.942;3.644;2022-12-29T02:13:15;3.55;;;0.88;;
52948;SDS011;38812;50.942;3.644;2022-12-29T02:34:46;3.95;;;1.02;;
52948;SDS011;38812;50.942;3.644;2022-12-29T02:37:32;4.35;;;0.98;;
52948;SDS011;38812;50.942;3.644;2022-12-29T02:40:07;1.70;;;0.70;;
52948;SDS011;38812;50.942;3.644;2022-12-29T02:50:32;5.32;;;0.90;;
52948;SDS011;38812;50.942;3.644;2022-12-29T02:53:07;6.80;;;0.90;;
52948;SDS011;38812;50.942;3.644;2022-12-29T02:55:36;8.00;;;1.13;;
52948;SDS011;38812;50.942;3.644;2022-12-29T03:00:33;11.25;;;1.45;;
52948;SDS011;38812;50.942;3.644;2022-12-29T03:03:53;8.32;;;0.98;;
52948;SDS011;38812;50.942;3.644;2022-12-29T03:09:05;6.50;;;0.70;;
52948;SDS011;38812;50.942;3.644;2022-12-29T03:11:58;5.75;;;1.20;;
52948;SDS011;38812;50.942;3.644;2022-12-29T03:14:48;9.73;;;1.20;;
52948;SDS011;38812;50.942;3.644;2022-12-29T03:17:51;7.50;;;1.17;;
52948;SDS011;38812;50.942;3.644;2022-12-29T03:20:26;5.65;;;0.90;;
52948;SDS011;38812;50.942;3.644;2022-12-29T03:23:07;7.75;;;1.20;;
52948;SDS011;38812;50.942;3.644;2022-12-29T03:25:34;10.63;;;1.30;;
52948;SDS011;38812;50.942;3.644;2022-12-29T03:28:07;4.57;;;0.98;;
52948;SDS011;38812;50.942;3.644;2022-12-29T03:30:35;8.73;;;0.90;;
52948;SDS011;38812;50.942;3.644;2022-12-29T03:33:03;11.05;;;2.03;;
52948;SDS011;38812;50.942;3.644;2022-12-29T03:35:33;8.90;;;1.42;;
52948;SDS011;38812;50.942;3.644;2022-12-29T03:40:32;10.10;;;1.45;;
52948;SDS011;38812;50.942;3.644;2022-12-29T03:42:59;5.90;;;1.27;;
52948;SDS011;38812;50.942;3.644;2022-12-29T03:45:26;9.35;;;1.75;;
52948;SDS011;38812;50.942;3.644;2022-12-29T03:47:52;7.30;;;1.27;;
52948;SDS011;38812;50.942;3.644;2022-12-29T03:50:18;12.57;;;1.65;;
52948;SDS011;38812;50.942;3.644;2022-12-29T03:52:44;7.88;;;1.60;;
52948;SDS011;38812;50.942;3.644;2022-12-29T03:55:09;7.03;;;1.20;;
52948;SDS011;38812;50.942;3.644;2022-12-29T03:57:34;5.70;;;1.30;;
52948;SDS011;38812;50.942;3.644;2022-12-29T04:00:00;11.48;;;1.50;;
52948;SDS011;38812;50.942;3.644;2022-12-29T04:02:25;11.65;;;1.73;;
52948;SDS011;38812;50.942;3.644;2022-12-29T04:04:51;10.52;;;1.63;;
52948;SDS011;38812;50.942;3.644;2022-12-29T04:07:16;5.28;;;1.15;;
52948;SDS011;38812;50.942;3.644;2022-12-29T04:09:42;16.45;;;1.83;;
52948;SDS011;38812;50.942;3.644;2022-12-29T04:12:07;9.77;;;1.45;;
52948;SDS011;38812;50.942;3.644;2022-12-29T04:14:32;11.75;;;1.92;;
52948;SDS011;38812;50.942;3.644;2022-12-29T04:16:58;11.85;;;1.23;;
52948;SDS011;38812;50.942;3.644;2022-12-29T04:19:23;7.18;;;1.23;;
52948;SDS011;38812;50.942;3.644;2022-12-29T04:21:48;7.07;;;1.40;;
52948;SDS011;38812;50.942;3.644;2022-12-29T04:24:14;10.75;;;1.70;;
52948;SDS011;38812;50.942;3.644;2022-12-29T04:26:39;7.45;;;1.92;;
52948;SDS011;38812;50.942;3.644;2022-12-29T04:29:05;9.00;;;1.35;;
52948;SDS011;38812;50.942;3.644;2022-12-29T04:31:30;9.68;;;1.58;;
52948;SDS011;38812;50.942;3.644;2022-12-29T04:33:55;3.63;;;0.82;;
52948;SDS011;38812;50.942;3.644;2022-12-29T04:36:22;6.30;;;1.20;;
52948;SDS011;38812;50.942;3.644;2022-12-29T04:38:48;7.13;;;1.35;;
52948;SDS011;38812;50.942;3.644;2022-12-29T04:41:13;9.00;;;1.48;;
52948;SDS011;38812;50.942;3.644;2022-12-29T04:43:39;8.25;;;1.10;;
52948;SDS011;38812;50.942;3.644;2022-12-29T04:46:04;4.60;;;1.05;;
52948;SDS011;38812;50.942;3.644;2022-12-29T04:48:30;6.70;;;1.30;;
52948;SDS011;38812;50.942;3.644;2022-12-29T04:50:55;11.68;;;1.48;;
52948;SDS011;38812;50.942;3.644;2022-12-29T04:53:21;5.97;;;0.90;;
52948;SDS011;38812;50.942;3.644;2022-12-29T04:55:49;7.95;;;1.23;;
52948;SDS011;38812;50.942;3.644;2022-12-29T04:58:16;6.25;;;0.70;;
52948;SDS011;38812;50.942;3.644;2022-12-29T05:00:42;6.65;;;1.30;;
52948;SDS011;38812;50.942;3.644;2022-12-29T05:03:07;4.57;;;0.77;;
52948;SDS011;38812;50.942;3.644;2022-12-29T05:05:32;6.32;;;1.00;;
52948;SDS011;38812;50.942;3.644;2022-12-29T05:07:58;7.82;;;1.23;;
52948;SDS011;38812;50.942;3.644;2022-12-29T05:10:23;11.73;;;1.20;;
52948;SDS011;38812;50.942;3.644;2022-12-29T05:12:48;9.55;;;1.73;;
52948;SDS011;38812;50.942;3.644;2022-12-29T05:15:14;8.30;;;0.88;;
52948;SDS011;38812;50.942;3.644;2022-12-29T05:17:39;8.93;;;1.23;;
52948;SDS011;38812;50.942;3.644;2022-12-29T05:20:05;6.35;;;0.77;;
52948;SDS011;38812;50.942;3.644;2022-12-29T05:22:31;9.15;;;1.05;;
52948;SDS011;38812;50.942;3.644;2022-12-29T05:24:57;12.48;;;1.73;;
52948;SDS011;38812;50.942;3.644;2022-12-29T05:27:22;14.40;;;2.00;;
52948;SDS011;38812;50.942;3.644;2022-12-29T05:29:47;10.00;;;1.27;;
52948;SDS011;38812;50.942;3.644;2022-12-29T05:32:13;4.22;;;1.85;;
52948;SDS011;38812;50.942;3.644;2022-12-29T05:34:38;9.13;;;1.27;;
52948;SDS011;38812;50.942;3.644;2022-12-29T05:37:04;7.78;;;2.10;;
52948;SDS011;38812;50.942;3.644;2022-12-29T05:39:29;16.30;;;1.58;;
52948;SDS011;38812;50.942;3.644;2022-12-29T05:41:55;8.88;;;1.55;;
52948;SDS011;38812;50.942;3.644;2022-12-29T05:44:20;4.70;;;1.13;;
52948;SDS011;38812;50.942;3.644;2022-12-29T05:46:46;7.18;;;1.02;;
52948;SDS011;38812;50.942;3.644;2022-12-29T05:49:11;7.65;;;1.98;;
52948;SDS011;38812;50.942;3.644;2022-12-29T05:51:37;8.40;;;3.17;;
52948;SDS011;38812;50.942;3.644;2022-12-29T05:54:02;6.65;;;1.70;;
52948;SDS011;38812;50.942;3.644;2022-12-29T05:56:28;6.43;;;1.23;;
52948;SDS011;38812;50.942;3.644;2022-12-29T05:58:53;14.85;;;1.85;;
52948;SDS011;38812;50.942;3.644;2022-12-29T06:01:18;8.63;;;1.20;;
52948;SDS011;38812;50.942;3.644;2022-12-29T06:03:44;9.25;;;1.77;;
52948;SDS011;38812;50.942;3.644;2022-12-29T06:06:09;15.07;;;2.75;;
52948;SDS011;38812;50.942;3.644;2022-12-29T06:08:35;12.85;;;1.90;;
52948;SDS011;38812;50.942;3.644;2022-12-29T06:11:00;13.57;;;1.75;;
52948;SDS011;38812;50.942;3.644;2022-12-29T06:13:25;9.90;;;1.85;;
52948;SDS011;38812;50.942;3.644;2022-12-29T06:15:52;13.48;;;1.80;;
52948;SDS011;38812;50.942;3.644;2022-12-29T06:18:18;9.02;;;1.48;;
52948;SDS011;38812;50.942;3.644;2022-12-29T06:20:43;10.60;;;1.40;;
52948;SDS011;38812;50.942;3.644;2022-12-29T06:23:08;14.48;;;2.80;;
52948;SDS011;38812;50.942;3.644;2022-12-29T06:25:34;7.60;;;1.52;;
52948;SDS011;38812;50.942;3.644;2022-12-29T06:28:01;12.90;;;2.30;;
52948;SDS011;38812;50.942;3.644;2022-12-29T06:30:26;9.50;;;1.58;;
52948;SDS011;38812;50.942;3.644;2022-12-29T06:32:52;11.18;;;1.58;;
52948;SDS011;38812;50.942;3.644;2022-12-29T06:35:17;11.32;;;2.20;;
52948;SDS011;38812;50.942;3.644;2022-12-29T06:37:43;17.45;;;2.28;;
52948;SDS011;38812;50.942;3.644;2022-12-29T06:40:09;8.90;;;1.50;;
52948;SDS011;38812;50.942;3.644;2022-12-29T06:42:35;9.10;;;1.70;;
52948;SDS011;38812;50.942;3.644;2022-12-29T06:45:00;13.73;;;1.88;;
52948;SDS011;38812;50.942;3.644;2022-12-29T06:47:26;9.57;;;1.63;;
52948;SDS011;38812;50.942;3.644;2022-12-29T06:49:52;9.63;;;1.92;;
52948;SDS011;38812;50.942;3.644;2022-12-29T06:52:17;17.23;;;1.83;;
52948;SDS011;38812;50.942;3.644;2022-12-29T06:54:42;8.95;;;3.28;;
52948;SDS011;38812;50.942;3.644;2022-12-29T06:57:08;13.40;;;2.10;;
52948;SDS011;38812;50.942;3.644;2022-12-29T06:59:33;13.13;;;1.52;;
52948;SDS011;38812;50.942;3.644;2022-12-29T07:01:59;12.35;;;1.92;;
52948;SDS011;38812;50.942;3.644;2022-12-29T07:04:26;17.80;;;2.35;;
52948;SDS011;38812;50.942;3.644;2022-12-29T07:06:52;25.35;;;11.50;;
52948;SDS011;38812;50.942;3.644;2022-12-29T07:09:17;11.15;;;1.92;;
52948;SDS011;38812;50.942;3.644;2022-12-29T07:11:42;9.02;;;1.70;;
52948;SDS011;38812;50.942;3.644;2022-12-29T07:14:08;18.83;;;2.40;;
52948;SDS011;38812;50.942;3.644;2022-12-29T07:16:35;8.13;;;2.03;;
52948;SDS011;38812;50.942;3.644;2022-12-29T07:19:01;10.10;;;1.80;;
52948;SDS011;38812;50.942;3.644;2022-12-29T07:21:26;11.95;;;1.88;;
52948;SDS011;38812;50.942;3.644;2022-12-29T07:23:51;14.43;;;2.60;;
52948;SDS011;38812;50.942;3.644;2022-12-29T07:26:19;10.25;;;1.70;;
52948;SDS011;38812;50.942;3.644;2022-12-29T07:28:44;13.93;;;2.03;;
52948;SDS011;38812;50.942;3.644;2022-12-29T07:31:17;10.70;;;2.22;;
52948;SDS011;38812;50.942;3.644;2022-12-29T07:33:44;17.35;;;2.10;;
52948;SDS011;38812;50.942;3.644;2022-12-29T07:36:11;11.20;;;2.45;;
52948;SDS011;38812;50.942;3.644;2022-12-29T07:38:37;14.35;;;2.63;;
52948;SDS011;38812;50.942;3.644;2022-12-29T07:41:03;13.85;;;2.08;;
52948;SDS011;38812;50.942;3.644;2022-12-29T07:43:29;7.70;;;2.03;;
52948;SDS011;38812;50.942;3.644;2022-12-29T07:45:54;14.95;;;2.45;;
52948;SDS011;38812;50.942;3.644;2022-12-29T07:48:20;15.20;;;3.03;;
52948;SDS011;38812;50.942;3.644;2022-12-29T07:50:45;19.02;;;3.17;;
52948;SDS011;38812;50.942;3.644;2022-12-29T07:53:11;12.95;;;3.33;;
52948;SDS011;38812;50.942;3.644;2022-12-29T07:55:36;13.02;;;2.28;;
52948;SDS011;38812;50.942;3.644;2022-12-29T07:58:02;8.70;;;1.92;;
52948;SDS011;38812;50.942;3.644;2022-12-29T08:00:27;10.85;;;1.65;;
52948;SDS011;38812;50.942;3.644;2022-12-29T08:02:53;8.27;;;1.73;;
52948;SDS011;38812;50.942;3.644;2022-12-29T08:05:18;14.15;;;2.22;;
52948;SDS011;38812;50.942;3.644;2022-12-29T08:07:44;12.45;;;2.20;;
52948;SDS011;38812;50.942;3.644;2022-12-29T08:10:10;18.45;;;3.15;;
52948;SDS011;38812;50.942;3.644;2022-12-29T08:12:39;15.68;;;2.67;;
52948;SDS011;38812;50.942;3.644;2022-12-29T08:15:06;13.38;;;2.05;;
52948;SDS011;38812;50.942;3.644;2022-12-29T08:17:33;15.98;;;2.30;;
52948;SDS011;38812;50.942;3.644;2022-12-29T08:19:58;12.77;;;3.60;;
52948;SDS011;38812;50.942;3.644;2022-12-29T08:22:24;11.38;;;2.25;;
52948;SDS011;38812;50.942;3.644;2022-12-29T08:24:49;14.68;;;2.15;;
52948;SDS011;38812;50.942;3.644;2022-12-29T08:27:15;14.35;;;1.98;;
52948;SDS011;38812;50.942;3.644;2022-12-29T08:29:40;20.83;;;2.60;;
52948;SDS011;38812;50.942;3.644;2022-12-29T08:32:06;7.72;;;2.33;;
52948;SDS011;38812;50.942;3.644;2022-12-29T08:34:32;14.35;;;2.45;;
52948;SDS011;38812;50.942;3.644;2022-12-29T08:36:58;10.32;;;2.40;;
52948;SDS011;38812;50.942;3.644;2022-12-29T08:39:23;12.43;;;2.22;;
52948;SDS011;38812;50.942;3.644;2022-12-29T08:41:48;12.65;;;2.15;;
52948;SDS011;38812;50.942;3.644;2022-12-29T08:44:14;13.30;;;1.90;;
52948;SDS011;38812;50.942;3.644;2022-12-29T08:46:39;7.90;;;2.00;;
52948;SDS011;38812;50.942;3.644;2022-12-29T08:49:05;12.18;;;2.45;;
52948;SDS011;38812;50.942;3.644;2022-12-29T08:51:30;18.95;;;2.33;;
52948;SDS011;38812;50.942;3.644;2022-12-29T08:53:55;15.38;;;2.70;;
52948;SDS011;38812;50.942;3.644;2022-12-29T08:56:21;14.45;;;2.45;;
52948;SDS011;38812;50.942;3.644;2022-12-29T08:58:48;15.10;;;2.53;;
52948;SDS011;38812;50.942;3.644;2022-12-29T09:01:14;12.73;;;2.45;;
52948;SDS011;38812;50.942;3.644;2022-12-29T09:03:39;25.00;;;3.58;;
52948;SDS011;38812;50.942;3.644;2022-12-29T09:06:05;10.18;;;1.85;;
52948;SDS011;38812;50.942;3.644;2022-12-29T09:08:30;9.93;;;2.30;;
52948;SDS011;38812;50.942;3.644;2022-12-29T09:10:55;13.82;;;2.05;;
52948;SDS011;38812;50.942;3.644;2022-12-29T09:13:31;12.15;;;2.13;;
52948;SDS011;38812;50.942;3.644;2022-12-29T09:15:59;14.13;;;2.30;;
52948;SDS011;38812;50.942;3.644;2022-12-29T09:18:25;15.85;;;2.30;;
52948;SDS011;38812;50.942;3.644;2022-12-29T09:20:55;25.50;;;2.78;;
52948;SDS011;38812;50.942;3.644;2022-12-29T09:23:22;9.15;;;2.08;;
52948;SDS011;38812;50.942;3.644;2022-12-29T09:25:47;16.40;;;2.78;;
52948;SDS011;38812;50.942;3.644;2022-12-29T09:28:12;21.23;;;3.10;;
52948;SDS011;38812;50.942;3.644;2022-12-29T09:30:38;13.50;;;3.08;;
52948;SDS011;38812;50.942;3.644;2022-12-29T09:33:04;17.45;;;2.95;;
52948;SDS011;38812;50.942;3.644;2022-12-29T09:35:29;14.57;;;2.30;;
52948;SDS011;38812;50.942;3.644;2022-12-29T09:37:55;17.65;;;2.63;;
52948;SDS011;38812;50.942;3.644;2022-12-29T09:40:27;18.27;;;2.72;;
52948;SDS011;38812;50.942;3.644;2022-12-29T09:48:41;11.25;;;2.22;;
52948;SDS011;38812;50.942;3.644;2022-12-29T09:51:13;19.42;;;3.15;;
52948;SDS011;38812;50.942;3.644;2022-12-29T09:53:49;27.23;;;3.85;;
52948;SDS011;38812;50.942;3.644;2022-12-29T09:56:19;15.40;;;2.85;;
52948;SDS011;38812;50.942;3.644;2022-12-29T10:01:34;14.52;;;2.42;;
52948;SDS011;38812;50.942;3.644;2022-12-29T10:04:06;8.68;;;2.30;;
52948;SDS011;38812;50.942;3.644;2022-12-29T10:17:48;21.77;;;3.25;;
52948;SDS011;38812;50.942;3.644;2022-12-29T10:25:46;12.35;;;2.35;;
52948;SDS011;38812;50.942;3.644;2022-12-29T10:28:17;14.85;;;1.90;;
52948;SDS011;38812;50.942;3.644;2022-12-29T10:30:43;7.57;;;1.77;;
52948;SDS011;38812;50.942;3.644;2022-12-29T10:33:13;14.40;;;2.13;;
52948;SDS011;38812;50.942;3.644;2022-12-29T10:35:43;6.05;;;1.67;;
52948;SDS011;38812;50.942;3.644;2022-12-29T10:45:54;13.48;;;2.08;;
52948;SDS011;38812;50.942;3.644;2022-12-29T10:48:33;10.45;;;2.20;;
52948;SDS011;38812;50.942;3.644;2022-12-29T10:51:02;13.15;;;2.90;;
52948;SDS011;38812;50.942;3.644;2022-12-29T10:53:33;12.85;;;1.98;;
52948;SDS011;38812;50.942;3.644;2022-12-29T10:56:05;17.67;;;1.98;;
52948;SDS011;38812;50.942;3.644;2022-12-29T10:59:28;13.02;;;1.90;;
52948;SDS011;38812;50.942;3.644;2022-12-29T11:04:47;15.80;;;2.70;;
52948;SDS011;38812;50.942;3.644;2022-12-29T11:07:18;17.10;;;2.72;;
52948;SDS011;38812;50.942;3.644;2022-12-29T11:09:46;13.02;;;1.75;;
52948;SDS011;38812;50.942;3.644;2022-12-29T11:12:19;14.77;;;2.58;;
52948;SDS011;38812;50.942;3.644;2022-12-29T11:14:45;12.15;;;1.73;;
52948;SDS011;38812;50.942;3.644;2022-12-29T11:17:14;13.65;;;1.65;;
52948;SDS011;38812;50.942;3.644;2022-12-29T11:19:41;11.02;;;2.00;;
52948;SDS011;38812;50.942;3.644;2022-12-29T11:22:14;8.38;;;1.63;;
52948;SDS011;38812;50.942;3.644;2022-12-29T11:24:44;8.40;;;1.60;;
52948;SDS011;38812;50.942;3.644;2022-12-29T11:27:14;14.23;;;1.92;;
52948;SDS011;38812;50.942;3.644;2022-12-29T11:29:47;16.83;;;2.10;;
52948;SDS011;38812;50.942;3.644;2022-12-29T11:34:43;16.02;;;2.92;;
52948;SDS011;38812;50.942;3.644;2022-12-29T11:39:58;11.23;;;2.10;;
52948;SDS011;38812;50.942;3.644;2022-12-29T11:42:35;19.92;;;2.30;;
52948;SDS011;38812;50.942;3.644;2022-12-29T11:45:25;19.35;;;3.30;;
52948;SDS011;38812;50.942;3.644;2022-12-29T11:50:41;9.05;;;1.60;;
52948;SDS011;38812;50.942;3.644;2022-12-29T11:55:38;13.45;;;2.10;;
52948;SDS011;38812;50.942;3.644;2022-12-29T11:58:04;11.38;;;2.10;;
52948;SDS011;38812;50.942;3.644;2022-12-29T12:00:31;12.90;;;2.53;;
52948;SDS011;38812;50.942;3.644;2022-12-29T12:03:07;12.65;;;2.35;;
52948;SDS011;38812;50.942;3.644;2022-12-29T12:05:57;8.88;;;2.20;;
52948;SDS011;38812;50.942;3.644;2022-12-29T12:11:06;10.27;;;1.67;;
52948;SDS011;38812;50.942;3.644;2022-12-29T12:13:37;9.82;;;1.88;;
52948;SDS011;38812;50.942;3.644;2022-12-29T12:16:09;5.72;;;1.40;;
52948;SDS011;38812;50.942;3.644;2022-12-29T12:18:50;8.00;;;1.17;;
52948;SDS011;38812;50.942;3.644;2022-12-29T12:21:41;11.07;;;1.50;;
52948;SDS011;38812;50.942;3.644;2022-12-29T12:27:01;4.50;;;0.98;;
52948;SDS011;38812;50.942;3.644;2022-12-29T12:29:35;5.10;;;1.05;;
52948;SDS011;38812;50.942;3.644;2022-12-29T12:34:38;7.88;;;1.25;;
52948;SDS011;38812;50.942;3.644;2022-12-29T12:57:36;12.43;;;1.95;;
52948;SDS011;38812;50.942;3.644;2022-12-29T13:00:16;9.50;;;1.63;;
52948;SDS011;38812;50.942;3.644;2022-12-29T13:05:31;9.15;;;1.40;;
52948;SDS011;38812;50.942;3.644;2022-12-29T13:17:11;7.63;;;1.65;;
52948;SDS011;38812;50.942;3.644;2022-12-29T13:25:19;10.38;;;1.65;;
52948;SDS011;38812;50.942;3.644;2022-12-29T13:27:56;11.30;;;1.58;;
52948;SDS011;38812;50.942;3.644;2022-12-29T13:30:32;7.53;;;1.23;;
52948;SDS011;38812;50.942;3.644;2022-12-29T13:36:07;8.02;;;0.90;;
52948;SDS011;38812;50.942;3.644;2022-12-29T13:38:46;6.15;;;1.33;;
52948;SDS011;38812;50.942;3.644;2022-12-29T13:41:32;6.38;;;1.55;;
52948;SDS011;38812;50.942;3.644;2022-12-29T13:44:02;3.30;;;0.98;;
52948;SDS011;38812;50.942;3.644;2022-12-29T13:46:34;7.28;;;0.95;;
52948;SDS011;38812;50.942;3.644;2022-12-29T13:49:07;2.33;;;0.73;;
52948;SDS011;38812;50.942;3.644;2022-12-29T13:51:39;2.45;;;0.65;;
52948;SDS011;38812;50.942;3.644;2022-12-29T13:57:09;6.15;;;2.33;;
52948;SDS011;38812;50.942;3.644;2022-12-29T14:04:57;5.43;;;1.00;;
52948;SDS011;38812;50.942;3.644;2022-12-29T14:07:27;6.78;;;0.95;;
52948;SDS011;38812;50.942;3.644;2022-12-29T14:09:54;13.38;;;1.17;;
52948;SDS011;38812;50.942;3.644;2022-12-29T14:17:36;8.07;;;1.00;;
52948;SDS011;38812;50.942;3.644;2022-12-29T14:20:05;7.53;;;1.10;;
52948;SDS011;38812;50.942;3.644;2022-12-29T14:22:55;2.65;;;0.95;;
52948;SDS011;38812;50.942;3.644;2022-12-29T14:25:57;6.97;;;1.05;;
52948;SDS011;38812;50.942;3.644;2022-12-29T14:28:24;9.53;;;1.33;;
52948;SDS011;38812;50.942;3.644;2022-12-29T14:30:52;4.75;;;1.27;;
52948;SDS011;38812;50.942;3.644;2022-12-29T14:33:20;4.68;;;1.10;;
52948;SDS011;38812;50.942;3.644;2022-12-29T14:35:47;9.35;;;1.48;;
52948;SDS011;38812;50.942;3.644;2022-12-29T14:38:18;4.53;;;0.98;;
52948;SDS011;38812;50.942;3.644;2022-12-29T14:40:46;6.90;;;1.17;;
52948;SDS011;38812;50.942;3.644;2022-12-29T14:43:23;8.65;;;1.50;;
52948;SDS011;38812;50.942;3.644;2022-12-29T14:45:55;12.07;;;2.05;;
52948;SDS011;38812;50.942;3.644;2022-12-29T14:50:57;18.20;;;3.15;;
52948;SDS011;38812;50.942;3.644;2022-12-29T14:56:15;12.18;;;3.38;;
52948;SDS011;38812;50.942;3.644;2022-12-29T14:58:44;15.93;;;2.75;;
52948;SDS011;38812;50.942;3.644;2022-12-29T15:01:26;28.50;;;3.17;;
52948;SDS011;38812;50.942;3.644;2022-12-29T15:03:54;20.52;;;2.70;;
52948;SDS011;38812;50.942;3.644;2022-12-29T15:06:23;20.38;;;2.60;;
52948;SDS011;38812;50.942;3.644;2022-12-29T15:14:01;16.40;;;1.88;;
52948;SDS011;38812;50.942;3.644;2022-12-29T15:16:31;11.52;;;2.13;;
52948;SDS011;38812;50.942;3.644;2022-12-29T15:19:00;15.32;;;2.22;;
52948;SDS011;38812;50.942;3.644;2022-12-29T15:21:30;13.82;;;1.95;;
52948;SDS011;38812;50.942;3.644;2022-12-29T15:24:00;10.45;;;2.13;;
52948;SDS011;38812;50.942;3.644;2022-12-29T15:26:41;14.05;;;2.35;;
52948;SDS011;38812;50.942;3.644;2022-12-29T15:32:01;11.95;;;2.00;;
52948;SDS011;38812;50.942;3.644;2022-12-29T15:34:41;10.38;;;1.60;;
52948;SDS011;38812;50.942;3.644;2022-12-29T15:37:17;9.88;;;1.92;;
52948;SDS011;38812;50.942;3.644;2022-12-29T15:39:56;13.23;;;2.60;;
52948;SDS011;38812;50.942;3.644;2022-12-29T15:44:50;9.30;;;2.42;;
52948;SDS011;38812;50.942;3.644;2022-12-29T15:47:18;10.55;;;1.65;;
52948;SDS011;38812;50.942;3.644;2022-12-29T15:50:20;6.15;;;1.67;;
52948;SDS011;38812;50.942;3.644;2022-12-29T15:52:46;8.20;;;1.95;;
52948;SDS011;38812;50.942;3.644;2022-12-29T15:55:27;13.05;;;2.58;;
52948;SDS011;38812;50.942;3.644;2022-12-29T15:57:58;12.55;;;2.72;;
52948;SDS011;38812;50.942;3.644;2022-12-29T16:02:55;18.13;;;2.28;;
52948;SDS011;38812;50.942;3.644;2022-12-29T16:05:24;13.43;;;1.98;;
52948;SDS011;38812;50.942;3.644;2022-12-29T16:07:56;17.27;;;2.45;;
52948;SDS011;38812;50.942;3.644;2022-12-29T16:10:28;16.45;;;2.78;;
52948;SDS011;38812;50.942;3.644;2022-12-29T16:13:05;9.07;;;2.03;;
52948;SDS011;38812;50.942;3.644;2022-12-29T16:15:47;13.23;;;2.28;;
52948;SDS011;38812;50.942;3.644;2022-12-29T16:18:20;12.40;;;2.42;;
52948;SDS011;38812;50.942;3.644;2022-12-29T16:20:50;14.23;;;2.22;;
52948;SDS011;38812;50.942;3.644;2022-12-29T16:23:18;17.17;;;3.65;;
52948;SDS011;38812;50.942;3.644;2022-12-29T16:25:48;13.98;;;2.85;;
52948;SDS011;38812;50.942;3.644;2022-12-29T16:28:15;13.02;;;2.33;;
52948;SDS011;38812;50.942;3.644;2022-12-29T16:30:47;22.70;;;3.38;;
52948;SDS011;38812;50.942;3.644;2022-12-29T16:33:38;19.77;;;3.92;;
52948;SDS011;38812;50.942;3.644;2022-12-29T16:36:22;34.38;;;7.90;;
52948;SDS011;38812;50.942;3.644;2022-12-29T16:39:08;30.60;;;8.77;;
52948;SDS011;38812;50.942;3.644;2022-12-29T16:41:36;15.18;;;4.05;;
52948;SDS011;38812;50.942;3.644;2022-12-29T16:44:12;17.00;;;3.30;;
52948;SDS011;38812;50.942;3.644;2022-12-29T16:47:05;16.60;;;3.65;;
52948;SDS011;38812;50.942;3.644;2022-12-29T16:49:40;16.57;;;2.70;;
52948;SDS011;38812;50.942;3.644;2022-12-29T16:52:16;24.25;;;3.10;;
52948;SDS011;38812;50.942;3.644;2022-12-29T16:54:44;21.65;;;3.13;;
52948;SDS011;38812;50.942;3.644;2022-12-29T16:57:30;14.70;;;2.50;;
52948;SDS011;38812;50.942;3.644;2022-12-29T17:00:06;17.85;;;2.72;;
52948;SDS011;38812;50.942;3.644;2022-12-29T17:02:32;20.38;;;3.20;;
52948;SDS011;38812;50.942;3.644;2022-12-29T17:05:12;13.02;;;3.10;;
52948;SDS011;38812;50.942;3.644;2022-12-29T17:07:39;18.10;;;2.55;;
52948;SDS011;38812;50.942;3.644;2022-12-29T17:10:04;19.17;;;2.75;;
52948;SDS011;38812;50.942;3.644;2022-12-29T17:12:30;17.05;;;3.25;;
52948;SDS011;38812;50.942;3.644;2022-12-29T17:15:00;22.60;;;3.53;;
52948;SDS011;38812;50.942;3.644;2022-12-29T17:17:42;15.73;;;2.63;;
52948;SDS011;38812;50.942;3.644;2022-12-29T17:20:18;19.92;;;3.05;;
52948;SDS011;38812;50.942;3.644;2022-12-29T17:22:45;15.88;;;2.67;;
52948;SDS011;38812;50.942;3.644;2022-12-29T17:25:11;13.32;;;2.88;;
52948;SDS011;38812;50.942;3.644;2022-12-29T17:27:49;15.38;;;3.35;;
52948;SDS011;38812;50.942;3.644;2022-12-29T17:30:21;21.35;;;3.50;;
52948;SDS011;38812;50.942;3.644;2022-12-29T17:32:51;14.93;;;2.90;;
52948;SDS011;38812;50.942;3.644;2022-12-29T17:35:19;18.27;;;2.97;;
52948;SDS011;38812;50.942;3.644;2022-12-29T17:37:46;20.20;;;3.22;;
52948;SDS011;38812;50.942;3.644;2022-12-29T17:40:15;15.55;;;3.15;;
52948;SDS011;38812;50.942;3.644;2022-12-29T17:42:46;21.85;;;3.40;;
52948;SDS011;38812;50.942;3.644;2022-12-29T17:45:14;15.20;;;2.35;;